Time;durP1;ratioP1;P1;durP2;ratioP2;P2;SDS_P1;SDS_P2;PMS_P1;PMS_P2;Temp;Humidity;BMP_temperature;BMP_pressure;BME280_temperature;BME280_humidity;BME280_pressure;Samples;Min_cycle;Max_cycle;Signal;HPM_P1;HPM_P2
2022/07/14 00:00:03;;;;;;;4.55;3.10;;;26.80;53.80;;;;;;10173423;28;20107;-59
2022/07/14 00:04:54;;;;;;;3.78;2.70;;;26.60;54.30;;;;;;10173161;28;20020;-58
2022/07/14 00:09:44;;;;;;;5.32;3.42;;;26.50;54.60;;;;;;10173163;28;20028;-59
2022/07/14 00:14:35;;;;;;;5.68;3.13;;;26.50;54.90;;;;;;10173200;28;20028;-59
2022/07/14 00:19:26;;;;;;;5.15;2.75;;;26.40;55.50;;;;;;10169053;28;20084;-59
2022/07/14 00:24:18;;;;;;;5.05;2.70;;;26.30;56.40;;;;;;10173038;28;20023;-58
2022/07/14 00:29:09;;;;;;;6.72;2.17;;;26.30;56.10;;;;;;10174011;28;20028;-59
2022/07/14 00:34:00;;;;;;;6.70;2.80;;;26.30;56.20;;;;;;10166616;28;20059;-59
2022/07/14 00:38:50;;;;;;;4.97;1.95;;;26.30;56.50;;;;;;10173012;28;20031;-59
2022/07/14 00:43:41;;;;;;;2.15;1.83;;;26.30;56.50;;;;;;10172990;28;20422;-59
2022/07/14 00:48:31;;;;;;;3.08;2.15;;;26.30;56.80;;;;;;10171703;28;20032;-59
2022/07/14 00:53:22;;;;;;;3.30;1.92;;;26.20;56.90;;;;;;10172699;28;20035;-60
2022/07/14 00:58:13;;;;;;;2.92;1.80;;;26.20;57.30;;;;;;10166541;28;20366;-59
2022/07/14 01:03:05;;;;;;;2.88;2.28;;;26.10;57.50;;;;;;10170822;28;20028;-60
2022/07/14 01:07:55;;;;;;;6.00;2.20;;;26.00;57.80;;;;;;10171531;28;20568;-59
2022/07/14 01:12:47;;;;;;;3.38;2.70;;;26.00;58.10;;;;;;10172873;28;20123;-59
2022/07/14 01:17:37;;;;;;;5.35;2.40;;;26.00;58.50;;;;;;10162923;28;20174;-59
2022/07/14 01:22:28;;;;;;;3.10;2.17;;;25.80;59.50;;;;;;10171362;28;20201;-58
2022/07/14 01:27:19;;;;;;;3.42;2.30;;;25.60;59.50;;;;;;10169578;28;20423;-59
2022/07/14 01:32:10;;;;;;;4.22;2.25;;;25.60;59.60;;;;;;10171492;28;20080;-59
2022/07/14 01:37:00;;;;;;;3.10;2.08;;;25.60;60.00;;;;;;10171185;28;20019;-59
2022/07/14 01:41:51;;;;;;;4.85;2.17;;;25.60;60.30;;;;;;10175892;28;20032;-59
2022/07/14 01:46:41;;;;;;;4.03;2.22;;;25.60;60.50;;;;;;10178582;28;20043;-59
2022/07/14 01:51:33;;;;;;;2.83;2.22;;;25.60;60.80;;;;;;10178022;28;20051;-60
2022/07/14 01:56:24;;;;;;;3.00;2.00;;;25.60;60.90;;;;;;10170348;28;20521;-59
2022/07/14 02:06:24;;;;;;;3.42;1.90;;;25.40;61.30;;;;;;10176165;28;20067;-59
2022/07/14 02:16:24;;;;;;;2.60;1.38;;;25.40;61.70;;;;;;10177687;28;20081;-59
2022/07/14 02:21:15;;;;;;;2.92;1.40;;;25.30;61.50;;;;;;10177990;28;20386;-59
2022/07/14 02:26:14;;;;;;;1.50;1.00;;;25.30;61.50;;;;;;10171763;28;20028;-59
2022/07/14 02:31:05;;;;;;;1.40;1.02;;;25.20;61.60;;;;;;10175757;28;20097;-58
2022/07/14 02:35:56;;;;;;;2.78;1.58;;;25.10;61.50;;;;;;10176500;28;20036;-59
2022/07/14 02:40:47;;;;;;;3.13;1.20;;;25.00;61.30;;;;;;10168266;28;20069;-59
2022/07/14 02:45:38;;;;;;;2.75;1.27;;;25.00;61.40;;;;;;10159830;28;20232;-59
2022/07/14 02:50:28;;;;;;;2.20;1.48;;;25.00;61.40;;;;;;10170856;28;20114;-59
2022/07/14 02:55:19;;;;;;;1.83;1.08;;;25.00;61.40;;;;;;10162984;28;20153;-59
2022/07/14 03:00:10;;;;;;;2.28;1.55;;;24.80;61.70;;;;;;10175597;28;20494;-59
2022/07/14 03:05:02;;;;;;;4.18;1.35;;;24.90;61.60;;;;;;10175323;28;20105;-59
2022/07/14 03:09:52;;;;;;;1.25;1.00;;;24.70;61.60;;;;;;10174508;28;20024;-58
2022/07/14 03:14:43;;;;;;;1.90;1.10;;;24.70;61.60;;;;;;10175311;28;20062;-59
2022/07/14 03:19:34;;;;;;;2.08;1.10;;;24.60;61.70;;;;;;10175167;28;20027;-59
2022/07/14 03:24:24;;;;;;;3.20;0.90;;;24.50;61.90;;;;;;10173103;28;20020;-59
2022/07/14 03:29:15;;;;;;;2.05;1.13;;;24.50;62.00;;;;;;10175531;28;20032;-59
2022/07/14 03:34:05;;;;;;;3.78;1.35;;;24.50;61.70;;;;;;10170427;28;20044;-59
2022/07/14 03:38:56;;;;;;;1.25;1.00;;;24.50;61.80;;;;;;10168702;28;20028;-58
2022/07/14 03:43:47;;;;;;;2.20;1.42;;;24.30;62.00;;;;;;10168961;28;20344;-58
2022/07/14 03:48:38;;;;;;;1.40;1.17;;;24.30;62.30;;;;;;10183894;28;20023;-58
2022/07/14 03:53:32;;;;;;;2.42;1.20;;;24.40;62.20;;;;;;10174256;28;20043;-58
2022/07/14 03:58:23;;;;;;;2.83;1.30;;;24.30;62.30;;;;;;10168324;28;20019;-59
2022/07/14 04:03:13;;;;;;;3.97;1.05;;;24.40;62.40;;;;;;10170704;28;20012;-60
2022/07/14 04:08:04;;;;;;;2.17;1.63;;;24.40;62.40;;;;;;10174468;28;20514;-59
2022/07/14 04:12:56;;;;;;;2.63;1.63;;;24.40;62.30;;;;;;10173769;28;20035;-59
2022/07/14 04:17:47;;;;;;;3.83;1.70;;;24.50;62.30;;;;;;10170309;28;20016;-59
2022/07/14 04:22:37;;;;;;;1.50;1.25;;;24.60;62.00;;;;;;10172624;28;20069;-59
2022/07/14 04:27:28;;;;;;;2.55;1.60;;;24.60;61.80;;;;;;10172446;28;20370;-58
2022/07/14 04:32:19;;;;;;;4.43;2.40;;;24.60;61.70;;;;;;10169771;28;20127;-61
2022/07/14 04:37:11;;;;;;;2.40;2.20;;;24.60;61.80;;;;;;10172927;28;20028;-60
2022/07/14 04:42:03;;;;;;;5.80;1.60;;;24.60;61.80;;;;;;10172542;28;20450;-59
2022/07/14 04:46:54;;;;;;;5.88;2.45;;;24.60;61.70;;;;;;10171644;28;20097;-59
2022/07/14 04:52:02;;;;;;;2.25;1.20;;;24.50;61.90;;;;;;10172321;28;20498;-58
2022/07/14 04:56:53;;;;;;;1.98;1.52;;;24.50;61.90;;;;;;10181182;28;20024;-58
2022/07/14 05:01:44;;;;;;;3.58;1.85;;;24.50;61.90;;;;;;10166596;28;20273;-58
2022/07/14 05:06:35;;;;;;;4.93;2.30;;;24.50;62.00;;;;;;10170932;28;20017;-58
2022/07/14 05:11:26;;;;;;;3.95;2.33;;;24.60;62.00;;;;;;10171442;28;20331;-59
2022/07/14 05:16:17;;;;;;;2.85;1.77;;;24.60;62.10;;;;;;10173968;28;20024;-59
2022/07/14 05:21:08;;;;;;;4.15;1.80;;;24.60;62.10;;;;;;10179715;28;20024;-59
2022/07/14 05:25:58;;;;;;;3.55;1.92;;;24.60;62.30;;;;;;10177796;28;20139;-60
2022/07/14 05:30:49;;;;;;;3.03;2.00;;;24.50;62.70;;;;;;10177202;28;20055;-59
2022/07/14 05:35:39;;;;;;;2.38;1.60;;;24.50;62.80;;;;;;10178817;28;20027;-59
2022/07/14 05:40:30;;;;;;;4.05;1.83;;;24.50;63.00;;;;;;10177237;28;20024;-59
2022/07/14 05:45:21;;;;;;;2.95;1.50;;;24.40;63.20;;;;;;10173552;28;20070;-60
2022/07/14 05:50:11;;;;;;;3.42;2.10;;;24.50;63.10;;;;;;10189105;28;20127;-59
2022/07/14 05:55:02;;;;;;;1.77;1.58;;;24.70;63.10;;;;;;10166542;28;20360;-59
2022/07/14 05:59:53;;;;;;;3.30;1.83;;;24.70;63.10;;;;;;10175106;28;20028;-58
2022/07/14 06:04:43;;;;;;;1.90;1.70;;;24.70;63.30;;;;;;10178291;28;20477;-59
2022/07/14 06:09:40;;;;;;;3.08;2.05;;;24.80;63.40;;;;;;10173712;28;20096;-59
2022/07/14 06:14:31;;;;;;;2.80;1.75;;;24.90;63.20;;;;;;10176655;28;20085;-60
2022/07/14 06:19:22;;;;;;;1.50;1.30;;;24.90;63.20;;;;;;10168487;28;20131;-58
2022/07/14 06:24:12;;;;;;;3.40;2.75;;;25.00;62.80;;;;;;10169977;28;20422;-59
2022/07/14 06:29:03;;;;;;;2.63;1.25;;;25.20;62.80;;;;;;10176738;28;20028;-60
2022/07/14 06:33:54;;;;;;;1.80;1.38;;;25.20;62.70;;;;;;10176610;28;20066;-63
2022/07/14 06:38:44;;;;;;;2.33;1.48;;;25.20;62.60;;;;;;10174499;28;20030;-59
2022/07/14 06:43:35;;;;;;;3.53;1.42;;;25.20;62.50;;;;;;10171436;28;20115;-59
2022/07/14 06:48:26;;;;;;;1.58;1.15;;;25.40;62.20;;;;;;10174067;28;20040;-60
2022/07/14 06:53:17;;;;;;;2.13;1.48;;;25.50;61.90;;;;;;10169315;28;20127;-57
2022/07/14 06:58:07;;;;;;;1.70;1.40;;;25.60;61.60;;;;;;10170652;28;20502;-60
2022/07/14 07:02:58;;;;;;;3.30;1.58;;;25.90;61.40;;;;;;10175850;28;20025;-61
2022/07/14 07:07:49;;;;;;;2.88;1.50;;;25.90;61.30;;;;;;10167145;28;20024;-57
2022/07/14 07:12:40;;;;;;;6.32;1.60;;;26.00;61.20;;;;;;10175084;28;20028;-58
2022/07/14 07:17:30;;;;;;;2.38;1.45;;;26.10;60.90;;;;;;10175064;28;20115;-64
2022/07/14 07:22:21;;;;;;;2.53;1.40;;;26.20;60.70;;;;;;10175010;28;20443;-64
2022/07/14 07:27:12;;;;;;;2.53;1.52;;;26.20;60.60;;;;;;10170784;28;20113;-63
2022/07/14 07:32:02;;;;;;;1.50;1.35;;;26.20;60.60;;;;;;10173465;28;20055;-60
2022/07/14 07:36:54;;;;;;;2.53;1.58;;;26.10;60.60;;;;;;10173895;28;20553;-59
2022/07/14 07:41:45;;;;;;;3.47;1.33;;;26.20;60.60;;;;;;10174592;28;20112;-61
2022/07/14 07:46:35;;;;;;;2.55;1.65;;;26.30;60.60;;;;;;10172858;28;20123;-59
2022/07/14 07:51:26;;;;;;;3.35;2.00;;;26.50;60.60;;;;;;10174435;28;20031;-59
2022/07/14 07:56:16;;;;;;;4.13;1.65;;;26.70;60.20;;;;;;10168644;28;20032;-59
2022/07/14 08:01:08;;;;;;;5.75;2.70;;;26.90;60.00;;;;;;10172451;28;20017;-59
2022/07/14 08:05:59;;;;;;;5.40;1.52;;;27.10;59.90;;;;;;10173495;28;20443;-61
2022/07/14 08:10:50;;;;;;;3.15;1.73;;;27.20;59.70;;;;;;10174269;28;20055;-59
2022/07/14 08:15:41;;;;;;;2.65;1.73;;;27.40;59.70;;;;;;10173128;28;20116;-60
2022/07/14 08:20:33;;;;;;;7.15;2.95;;;27.60;59.60;;;;;;10173120;28;20065;-58
2022/07/14 08:25:24;;;;;;;3.83;1.10;;;27.80;59.50;;;;;;10167715;28;20016;-59
2022/07/14 08:30:15;;;;;;;2.08;1.20;;;28.00;59.40;;;;;;10165404;28;20119;-59
2022/07/14 08:35:08;;;;;;;3.25;1.58;;;28.20;59.00;;;;;;10172282;28;20139;-60
2022/07/14 08:39:59;;;;;;;1.87;1.33;;;28.30;58.60;;;;;;10166881;28;20402;-61
2022/07/14 08:44:51;;;;;;;2.40;1.88;;;28.60;58.10;;;;;;10171437;28;20394;-61
2022/07/14 08:49:43;;;;;;;3.70;1.55;;;29.00;57.50;;;;;;10176471;28;20107;-60
2022/07/14 08:54:36;;;;;;;1.92;1.40;;;29.30;56.80;;;;;;10175995;28;20491;-61
2022/07/14 08:59:26;;;;;;;3.10;1.48;;;29.60;56.40;;;;;;10179832;28;20027;-61
2022/07/14 09:04:17;;;;;;;1.98;1.30;;;29.70;56.10;;;;;;10179903;28;20032;-60
2022/07/14 09:09:08;;;;;;;2.78;1.25;;;29.70;55.80;;;;;;10179713;28;20066;-62
2022/07/14 09:14:09;;;;;;;2.33;1.27;;;29.90;55.50;;;;;;10170311;28;20054;-60
2022/07/14 09:19:08;;;;;;;3.15;1.50;;;30.00;55.10;;;;;;10171491;28;20464;-64
2022/07/14 09:23:59;;;;;;;4.03;1.73;;;30.00;55.00;;;;;;10178132;28;20024;-66
2022/07/14 09:28:51;;;;;;;2.85;1.58;;;29.90;54.80;;;;;;10174785;28;20120;-61
2022/07/14 09:33:42;;;;;;;2.78;1.30;;;30.00;54.60;;;;;;10178813;28;20495;-61
2022/07/14 09:38:33;;;;;;;3.22;1.42;;;29.90;54.40;;;;;;10177941;28;20085;-60
2022/07/14 09:43:24;;;;;;;3.20;1.33;;;29.90;54.00;;;;;;10178422;28;20074;-59
2022/07/14 09:48:17;;;;;;;3.85;1.98;;;29.90;53.60;;;;;;10166643;28;20474;-60
2022/07/14 09:53:12;;;;;;;3.33;1.75;;;30.10;53.20;;;;;;10178525;28;20262;-59
2022/07/14 09:58:03;;;;;;;3.40;1.42;;;30.40;52.90;;;;;;10169751;28;20032;-60
2022/07/14 10:02:53;;;;;;;4.30;1.40;;;30.50;52.70;;;;;;10176846;28;20024;-62
2022/07/14 10:07:47;;;;;;;2.97;1.52;;;30.80;52.20;;;;;;10176643;28;20568;-64
2022/07/14 10:12:41;;;;;;;1.73;1.30;;;30.90;52.20;;;;;;10178814;28;20565;-63
2022/07/14 10:17:34;;;;;;;;;;;30.70;52.10;;;;;;10179142;28;20730;-61
2022/07/14 10:22:26;;;;;;;5.23;1.20;;;30.80;51.60;;;;;;10177475;28;19940;-61
2022/07/14 10:27:20;;;;;;;1.77;1.30;;;30.90;51.50;;;;;;10171580;28;20909;-58
2022/07/14 10:32:23;;;;;;;1.48;1.27;;;31.00;50.80;;;;;;10176353;28;20324;-60
2022/07/14 10:37:35;;;;;;;3.20;1.50;;;31.20;49.90;;;;;;10166360;28;20027;-59
2022/07/14 10:42:52;;;;;;;2.25;1.20;;;31.20;49.10;;;;;;10170462;28;20026;-60
2022/07/14 10:47:49;;;;;;;1.75;1.52;;;31.20;49.00;;;;;;10176641;28;20024;-60
2022/07/14 10:52:53;;;;;;;4.35;1.48;;;31.30;49.10;;;;;;10175799;28;20119;-62
2022/07/14 10:57:59;;;;;;;2.70;1.30;;;31.50;48.50;;;;;;10176591;28;20024;-60
2022/07/14 11:03:10;;;;;;;3.40;1.35;;;31.60;48.40;;;;;;10175567;28;20074;-60
2022/07/14 11:08:10;;;;;;;3.35;1.52;;;31.90;48.20;;;;;;10169069;28;20024;-59
2022/07/14 11:13:06;;;;;;;3.85;1.25;;;32.00;48.00;;;;;;10173304;28;20040;-64
2022/07/14 11:18:28;;;;;;;5.25;2.75;;;32.30;48.00;;;;;;10172858;28;20107;-64
2022/07/14 11:23:21;;;;;;;1.90;1.15;;;32.40;47.00;;;;;;10174380;28;20092;-63
2022/07/14 11:28:43;;;;;;;2.00;1.40;;;32.40;47.20;;;;;;10168895;28;20028;-63
2022/07/14 11:33:33;;;;;;;2.72;1.30;;;32.50;46.60;;;;;;10162268;28;20148;-64
2022/07/14 11:38:28;;;;;;;4.53;1.48;;;32.60;46.90;;;;;;10173766;28;20186;-62
2022/07/14 11:43:31;;;;;;;4.35;1.40;;;32.80;46.70;;;;;;10167966;28;20410;-64
2022/07/14 11:48:22;;;;;;;2.10;1.30;;;33.00;46.00;;;;;;10162825;28;20104;-63
2022/07/14 11:53:15;;;;;;;6.05;1.50;;;33.10;46.00;;;;;;10173759;28;20049;-63
2022/07/14 11:58:06;;;;;;;1.00;1.00;;;33.30;45.90;;;;;;10168143;28;20085;-61
2022/07/14 12:02:58;;;;;;;2.30;1.35;;;33.70;45.30;;;;;;10175100;28;20036;-64
2022/07/14 12:07:50;;;;;;;3.25;1.50;;;34.10;45.00;;;;;;10177487;28;20030;-62
2022/07/14 12:12:45;;;;;;;3.25;1.70;;;34.50;44.40;;;;;;10173867;28;20087;-64
2022/07/14 12:17:49;;;;;;;3.42;1.80;;;34.70;43.60;;;;;;10172349;28;20469;-66
2022/07/14 12:22:44;;;;;;;2.17;1.10;;;34.50;43.80;;;;;;10172208;28;20375;-64
2022/07/14 12:27:35;;;;;;;1.38;1.20;;;34.50;43.90;;;;;;10167104;28;20024;-61
2022/07/14 12:32:26;;;;;;;2.83;1.75;;;35.00;43.80;;;;;;10172363;28;20173;-61
2022/07/14 12:37:18;;;;;;;1.50;1.20;;;35.00;43.50;;;;;;10172952;28;20048;-63
2022/07/14 12:42:10;;;;;;;3.05;1.60;;;35.10;43.40;;;;;;10171592;28;20024;-60
2022/07/14 12:47:08;;;;;;;2.83;1.40;;;35.00;43.10;;;;;;10177453;28;20028;-58
2022/07/14 12:52:00;;;;;;;2.90;1.58;;;35.20;42.80;;;;;;10173009;28;20032;-61
2022/07/14 12:56:52;;;;;;;3.17;2.33;;;35.50;43.00;;;;;;10165882;28;20028;-59
2022/07/14 13:01:50;;;;;;;;;;;36.00;42.80;;;;;;10172532;28;20077;-59
2022/07/14 13:06:43;;;;;;;2.38;1.42;;;36.70;42.60;;;;;;10173254;28;20446;-63
2022/07/14 13:11:34;;;;;;;2.35;1.55;;;35.80;42.60;;;;;;10168372;28;20479;-64
2022/07/14 13:16:29;;;;;;;2.13;1.40;;;36.70;42.10;;;;;;10171375;28;20024;-60
2022/07/14 13:21:20;;;;;;;6.72;1.63;;;38.60;40.40;;;;;;10171863;28;20017;-65
2022/07/14 13:26:11;;;;;;;2.83;1.30;;;39.30;40.00;;;;;;10168397;28;20510;-61
2022/07/14 13:31:07;;;;;;;3.28;1.20;;;40.70;38.80;;;;;;10176259;28;20229;-59
2022/07/14 13:35:59;;;;;;;4.72;1.38;;;41.70;37.60;;;;;;10173257;28;20071;-63
2022/07/14 13:40:50;;;;;;;2.33;1.77;;;39.60;37.10;;;;;;10173133;28;20020;-64
2022/07/14 13:45:41;;;;;;;;;;;38.90;36.30;;;;;;10178903;28;20398;-60
2022/07/14 13:55:41;;;;;;;2.30;1.13;;;38.90;35.90;;;;;;10167796;28;20058;-64
2022/07/14 14:00:32;;;;;;;4.50;1.50;;;37.30;35.60;;;;;;10177908;28;20031;-61
2022/07/14 14:05:22;;;;;;;2.03;1.37;;;38.70;35.00;;;;;;10178079;28;20501;-60
2022/07/14 14:10:13;;;;;;;2.90;1.30;;;38.70;35.70;;;;;;10170648;28;20024;-65
2022/07/14 14:15:04;;;;;;;1.57;1.47;;;38.90;34.90;;;;;;10177097;28;20290;-63
2022/07/14 14:19:55;;;;;;;1.70;1.48;;;37.00;35.80;;;;;;10175489;28;20489;-63
2022/07/14 14:24:46;;;;;;;1.95;1.45;;;39.40;35.60;;;;;;10170619;28;20054;-62
2022/07/14 14:29:39;;;;;;;1.98;1.40;;;39.40;34.60;;;;;;10177819;28;20409;-63
2022/07/14 14:34:29;;;;;;;2.40;1.50;;;41.60;35.10;;;;;;10176149;28;20208;-60
2022/07/14 14:39:20;;;;;;;1.75;1.65;;;41.90;34.50;;;;;;10173499;28;20141;-61
2022/07/14 14:44:11;;;;;;;2.03;1.52;;;40.70;35.30;;;;;;10171151;28;20051;-62
2022/07/14 14:49:01;;;;;;;6.97;1.40;;;40.50;35.00;;;;;;10162818;28;20307;-64
2022/07/14 14:53:52;;;;;;;3.17;1.33;;;40.60;35.00;;;;;;10164629;28;20119;-59
2022/07/14 14:58:43;;;;;;;2.75;1.40;;;39.60;34.90;;;;;;10164509;28;20441;-61
2022/07/14 15:03:33;;;;;;;3.57;1.67;;;37.60;36.40;;;;;;10170758;28;20031;-59
2022/07/14 15:08:24;;;;;;;4.03;1.45;;;37.20;36.70;;;;;;10175893;28;20073;-60
2022/07/14 15:13:15;;;;;;;2.00;1.57;;;38.10;36.40;;;;;;10175542;28;20086;-60
2022/07/14 15:18:05;;;;;;;5.25;1.85;;;39.40;35.70;;;;;;10170943;28;20021;-61
2022/07/14 15:22:56;;;;;;;2.95;1.45;;;39.90;35.60;;;;;;10175178;28;20370;-58
2022/07/14 15:27:47;;;;;;;2.63;1.80;;;39.40;35.70;;;;;;10168816;28;20035;-58
2022/07/14 15:32:37;;;;;;;2.53;1.30;;;38.40;36.00;;;;;;10168743;28;20048;-58
2022/07/14 15:37:28;;;;;;;2.73;1.33;;;37.70;36.50;;;;;;10173612;28;20032;-61
2022/07/14 15:42:19;;;;;;;1.70;1.17;;;38.70;35.80;;;;;;10168272;28;20111;-59
2022/07/14 15:47:10;;;;;;;4.10;1.23;;;39.10;35.50;;;;;;10171669;28;20018;-59
2022/07/14 15:52:02;;;;;;;2.33;1.30;;;38.20;35.90;;;;;;10185522;28;20347;-60
2022/07/14 15:56:52;;;;;;;2.83;1.60;;;37.30;36.10;;;;;;10167795;28;20062;-62
2022/07/14 16:01:43;;;;;;;2.65;2.15;;;36.80;36.40;;;;;;10173796;28;20420;-59
2022/07/14 16:06:34;;;;;;;4.18;1.50;;;37.10;36.40;;;;;;10173368;28;20126;-59
2022/07/14 16:11:25;;;;;;;5.70;1.40;;;39.50;34.80;;;;;;10173496;28;20024;-61
2022/07/14 16:16:15;;;;;;;2.73;1.70;;;38.60;35.30;;;;;;10165099;28;20036;-59
2022/07/14 16:21:06;;;;;;;2.60;1.67;;;37.40;36.00;;;;;;10173122;28;20619;-59
2022/07/14 16:25:56;;;;;;;3.28;1.50;;;38.00;35.70;;;;;;10168208;28;20020;-61
2022/07/14 16:30:48;;;;;;;2.90;1.55;;;37.10;36.00;;;;;;10164451;28;20028;-58
2022/07/14 16:35:39;;;;;;;4.38;2.15;;;36.40;36.60;;;;;;10172508;28;20024;-61
2022/07/14 16:40:30;;;;;;;3.97;1.93;;;37.70;36.20;;;;;;10166750;28;20032;-60
2022/07/14 16:45:20;;;;;;;3.00;1.53;;;39.80;35.00;;;;;;10171821;28;20468;-62
2022/07/14 16:50:11;;;;;;;7.57;1.77;;;41.10;34.90;;;;;;10172732;28;20024;-60
2022/07/14 16:55:02;;;;;;;3.80;1.50;;;40.80;35.60;;;;;;10167459;28;20294;-61
2022/07/14 16:59:53;;;;;;;;;;;41.00;35.70;;;;;;10171168;28;20020;-64
2022/07/14 17:04:44;;;;;;;3.00;1.40;;;41.40;35.10;;;;;;10171773;28;19915;-65
2022/07/14 17:09:34;;;;;;;2.97;1.55;;;38.30;36.80;;;;;;10171145;28;20508;-67
2022/07/14 17:14:25;;;;;;;6.35;1.60;;;37.90;37.10;;;;;;10175231;28;20036;-60
2022/07/14 17:19:16;;;;;;;3.53;1.50;;;37.00;37.60;;;;;;10184190;28;20023;-60
2022/07/14 17:24:07;;;;;;;3.70;1.42;;;36.00;38.50;;;;;;10175175;28;20031;-60
2022/07/14 17:28:57;;;;;;;3.42;1.90;;;38.60;37.00;;;;;;10178339;28;20024;-60
2022/07/14 17:33:48;;;;;;;2.33;1.53;;;41.00;35.20;;;;;;10179105;28;20058;-59
2022/07/14 17:38:39;;;;;;;6.63;2.20;;;41.30;35.00;;;;;;10171003;28;20028;-59
2022/07/14 17:43:31;;;;;;;4.63;2.17;;;41.50;34.70;;;;;;10173149;28;20605;-62
2022/07/14 17:48:22;;;;;;;5.70;2.38;;;40.70;35.70;;;;;;10178595;28;20262;-61
2022/07/14 17:53:14;;;;;;;5.22;2.85;;;39.20;36.70;;;;;;10164449;28;20122;-61
2022/07/14 17:58:07;;;;;;;3.97;1.85;;;38.50;37.10;;;;;;10174054;28;20669;-60
2022/07/14 18:02:58;;;;;;;5.15;3.03;;;37.60;37.50;;;;;;10178176;28;20127;-61
2022/07/14 18:07:48;;;;;;;5.45;2.20;;;35.00;39.30;;;;;;10177588;28;20016;-62
2022/07/14 18:12:40;;;;;;;4.05;2.30;;;33.40;40.70;;;;;;10176633;28;20578;-61
2022/07/14 18:17:31;;;;;;;6.47;2.17;;;32.50;41.50;;;;;;10171932;28;20031;-60
2022/07/14 18:22:22;;;;;;;3.85;1.80;;;32.00;42.10;;;;;;10169767;28;20486;-62
2022/07/14 18:27:13;;;;;;;6.32;2.17;;;31.30;42.80;;;;;;10163596;28;20028;-59
2022/07/14 18:32:04;;;;;;;6.57;2.33;;;30.90;43.60;;;;;;10174913;28;20502;-61
2022/07/14 18:36:55;;;;;;;6.43;3.10;;;30.70;43.80;;;;;;10171448;28;20028;-60
2022/07/14 18:41:45;;;;;;;5.45;1.92;;;30.60;43.90;;;;;;10175939;28;20098;-61
2022/07/14 18:46:36;;;;;;;5.88;2.22;;;30.40;44.20;;;;;;10175999;28;20038;-61
2022/07/14 18:51:27;;;;;;;3.30;2.03;;;30.30;44.60;;;;;;10168055;28;20287;-65
2022/07/14 18:56:18;;;;;;;5.18;2.30;;;30.30;44.60;;;;;;10169825;28;20118;-64
2022/07/14 19:01:10;;;;;;;3.47;2.75;;;30.10;44.80;;;;;;10174877;28;20109;-64
2022/07/14 19:06:02;;;;;;;4.28;2.05;;;30.10;44.90;;;;;;10164992;28;20034;-60
2022/07/14 19:10:53;;;;;;;4.28;2.67;;;30.00;44.90;;;;;;10175428;28;20456;-59
2022/07/14 19:15:48;;;;;;;5.70;2.35;;;29.90;45.20;;;;;;10173680;28;20097;-62
2022/07/14 19:20:39;;;;;;;4.50;2.13;;;29.80;45.70;;;;;;10171276;28;20068;-64
2022/07/14 19:25:30;;;;;;;3.65;2.55;;;29.70;45.70;;;;;;10169486;28;20069;-61
2022/07/14 19:30:20;;;;;;;5.80;2.40;;;29.70;45.70;;;;;;10175094;28;20016;-61
2022/07/14 19:35:12;;;;;;;5.10;2.00;;;29.50;46.10;;;;;;10173143;28;20958;-61
2022/07/14 19:40:04;;;;;;;4.03;2.30;;;29.20;46.50;;;;;;10174222;28;20119;-64
2022/07/14 19:44:55;;;;;;;5.07;1.95;;;29.20;46.70;;;;;;10174212;28;20478;-60
2022/07/14 19:49:46;;;;;;;4.88;2.45;;;29.20;46.90;;;;;;10172439;28;20087;-61
2022/07/14 19:54:36;;;;;;;6.45;2.60;;;29.00;47.10;;;;;;10173362;28;20036;-63
2022/07/14 19:59:27;;;;;;;5.22;2.28;;;29.10;47.00;;;;;;10175334;28;20039;-61
2022/07/14 20:04:18;;;;;;;3.42;2.03;;;29.00;47.10;;;;;;10169844;28;20020;-61
2022/07/14 20:09:08;;;;;;;2.80;2.15;;;29.00;47.30;;;;;;10172332;28;20082;-59
2022/07/14 20:14:01;;;;;;;8.93;2.38;;;28.90;47.40;;;;;;10171752;28;20039;-61
2022/07/14 20:18:51;;;;;;;5.78;2.08;;;28.80;47.50;;;;;;10165092;28;20526;-60
2022/07/14 20:23:43;;;;;;;5.15;2.00;;;28.70;47.70;;;;;;10172118;28;20119;-59
2022/07/14 20:33:43;;;;;;;3.15;2.70;;;28.50;47.80;;;;;;10164345;28;20043;-60
2022/07/14 20:38:33;;;;;;;2.33;2.00;;;28.30;48.00;;;;;;10173061;28;20035;-58
2022/07/14 20:43:26;;;;;;;3.95;2.00;;;28.20;48.20;;;;;;10168992;28;20034;-59
2022/07/14 20:48:16;;;;;;;6.88;2.42;;;28.10;48.40;;;;;;10162333;28;20137;-65
2022/07/14 20:53:08;;;;;;;5.53;2.25;;;28.00;48.60;;;;;;10171712;28;20153;-64
2022/07/14 20:57:59;;;;;;;3.83;2.20;;;27.80;49.50;;;;;;10164379;28;20095;-61
2022/07/14 21:02:49;;;;;;;6.55;2.00;;;27.70;48.90;;;;;;10173036;28;20171;-65
2022/07/14 21:07:40;;;;;;;3.90;2.10;;;27.50;49.10;;;;;;10171693;28;20020;-66
2022/07/14 21:12:31;;;;;;;3.38;2.35;;;27.20;49.30;;;;;;10161520;28;20029;-63
2022/07/14 21:17:21;;;;;;;4.63;2.53;;;27.20;49.30;;;;;;10172757;28;20034;-63
2022/07/14 21:22:12;;;;;;;3.70;2.08;;;27.20;49.00;;;;;;10172187;28;20024;-60
2022/07/14 21:27:03;;;;;;;4.45;2.00;;;27.10;49.00;;;;;;10163255;28;20089;-64
2022/07/14 21:31:54;;;;;;;5.85;2.17;;;26.90;49.00;;;;;;10172161;28;20048;-62
2022/07/14 21:36:44;;;;;;;5.55;1.92;;;26.80;48.90;;;;;;10170960;28;20025;-64
2022/07/14 21:41:35;;;;;;;6.22;2.22;;;26.70;48.90;;;;;;10165188;28;20107;-62
2022/07/14 21:46:26;;;;;;;5.40;2.13;;;26.60;48.90;;;;;;10171028;28;20069;-59
2022/07/14 21:51:17;;;;;;;4.93;2.70;;;26.40;49.00;;;;;;10171357;28;20434;-63
2022/07/14 21:56:07;;;;;;;3.55;2.33;;;26.30;49.00;;;;;;10162397;28;20093;-59
2022/07/14 22:00:58;;;;;;;2.70;1.90;;;26.30;48.90;;;;;;10178509;28;20032;-62
2022/07/14 22:05:49;;;;;;;2.83;2.10;;;26.20;49.00;;;;;;10178237;28;20020;-61
2022/07/14 22:10:41;;;;;;;6.10;2.00;;;26.20;48.80;;;;;;10177730;28;20278;-62
2022/07/14 22:15:31;;;;;;;2.28;2.08;;;26.10;48.70;;;;;;10177818;28;20316;-60
2022/07/14 22:20:23;;;;;;;3.42;2.10;;;26.20;48.70;;;;;;10177715;28;20028;-59
2022/07/14 22:25:14;;;;;;;3.85;2.35;;;26.10;48.90;;;;;;10171559;28;20047;-64
2022/07/14 22:30:06;;;;;;;4.38;2.05;;;26.10;48.80;;;;;;10176649;28;20074;-61
2022/07/14 22:34:56;;;;;;;9.60;2.15;;;26.00;48.90;;;;;;10176772;28;20304;-63
2022/07/14 22:39:47;;;;;;;7.90;2.53;;;26.10;48.80;;;;;;10166728;28;20103;-67
2022/07/14 22:44:38;;;;;;;6.25;2.22;;;26.00;48.90;;;;;;10173103;28;20055;-65
2022/07/14 22:49:31;;;;;;;5.50;2.30;;;26.00;48.90;;;;;;10155820;28;20074;-63
2022/07/14 22:54:22;;;;;;;5.03;2.00;;;26.00;49.00;;;;;;10167299;28;20461;-65
2022/07/14 22:59:17;;;;;;;3.13;1.98;;;25.90;49.10;;;;;;10173891;28;20020;-65
2022/07/14 23:04:07;;;;;;;3.20;2.05;;;25.80;49.10;;;;;;10172272;28;20033;-66
2022/07/14 23:08:59;;;;;;;2.53;1.38;;;25.70;49.30;;;;;;10181702;28;20163;-66
2022/07/14 23:13:53;;;;;;;2.30;1.70;;;25.50;49.60;;;;;;10176580;28;20621;-67
2022/07/14 23:18:47;;;;;;;2.33;1.53;;;25.30;49.70;;;;;;10172578;28;20012;-68
2022/07/14 23:23:37;;;;;;;4.57;2.00;;;25.20;49.80;;;;;;10194801;28;20028;-67
2022/07/14 23:28:28;;;;;;;3.40;2.05;;;25.30;49.80;;;;;;10173550;28;20008;-66
2022/07/14 23:33:19;;;;;;;3.05;2.10;;;25.10;50.00;;;;;;10174804;28;20513;-66
2022/07/14 23:38:10;;;;;;;4.28;1.95;;;25.00;50.10;;;;;;10175079;28;20046;-67
2022/07/14 23:43:01;;;;;;;2.80;1.60;;;25.10;50.10;;;;;;10163880;28;20225;-67
2022/07/14 23:47:51;;;;;;;2.42;2.00;;;24.90;50.20;;;;;;10171167;28;20035;-64
2022/07/14 23:52:43;;;;;;;4.70;2.50;;;24.80;50.50;;;;;;10168046;28;20142;-68
2022/07/14 23:57:34;;;;;;;2.95;1.90;;;24.70;50.80;;;;;;10163685;28;20433;-61
